sensor_id;sensor_type;location;lat;lon;timestamp;pressure;altitude;pressure_sealevel;temperature;humidity
37716;BME280;23562;50.540;12.504;2022-08-01T00:01:33;94562.91;;;19.44;100.00
37716;BME280;23562;50.540;12.504;2022-08-01T00:03:58;94562.28;;;19.42;100.00
37716;BME280;23562;50.540;12.504;2022-08-01T00:06:23;94562.72;;;19.46;100.00
37716;BME280;23562;50.540;12.504;2022-08-01T00:08:48;94559.00;;;19.47;100.00
37716;BME280;23562;50.540;12.504;2022-08-01T00:11:14;94561.47;;;19.48;100.00
37716;BME280;23562;50.540;12.504;2022-08-01T00:13:39;94558.97;;;19.40;100.00
37716;BME280;23562;50.540;12.504;2022-08-01T00:16:05;94556.78;;;19.29;100.00
37716;BME280;23562;50.540;12.504;2022-08-01T00:18:30;94554.78;;;19.31;100.00
37716;BME280;23562;50.540;12.504;2022-08-01T00:20:55;94546.97;;;19.36;100.00
37716;BME280;23562;50.540;12.504;2022-08-01T00:23:21;94552.75;;;19.33;100.00
37716;BME280;23562;50.540;12.504;2022-08-01T00:25:46;94546.09;;;19.29;100.00
37716;BME280;23562;50.540;12.504;2022-08-01T00:28:11;94538.53;;;19.33;100.00
37716;BME280;23562;50.540;12.504;2022-08-01T00:30:38;94536.53;;;19.20;100.00
37716;BME280;23562;50.540;12.504;2022-08-01T00:33:03;94545.22;;;19.22;100.00
37716;BME280;23562;50.540;12.504;2022-08-01T00:35:28;94537.41;;;19.27;100.00
37716;BME280;23562;50.540;12.504;2022-08-01T00:37:54;94540.63;;;19.16;100.00
37716;BME280;23562;50.540;12.504;2022-08-01T00:40:19;94532.91;;;19.28;100.00
37716;BME280;23562;50.540;12.504;2022-08-01T00:42:44;94539.09;;;19.28;100.00
37716;BME280;23562;50.540;12.504;2022-08-01T00:45:11;94532.66;;;19.23;100.00
37716;BME280;23562;50.540;12.504;2022-08-01T00:47:36;94526.47;;;19.22;100.00
37716;BME280;23562;50.540;12.504;2022-08-01T00:50:04;94525.72;;;19.28;100.00
37716;BME280;23562;50.540;12.504;2022-08-01T00:52:30;94527.13;;;19.24;100.00
37716;BME280;23562;50.540;12.504;2022-08-01T00:54:55;94513.09;;;19.22;100.00
37716;BME280;23562;50.540;12.504;2022-08-01T00:57:20;94529.66;;;19.32;100.00
37716;BME280;23562;50.540;12.504;2022-08-01T00:59:46;94527.25;;;19.37;100.00
37716;BME280;23562;50.540;12.504;2022-08-01T01:02:11;94527.66;;;19.41;100.00
37716;BME280;23562;50.540;12.504;2022-08-01T01:04:37;94524.09;;;19.34;100.00
37716;BME280;23562;50.540;12.504;2022-08-01T01:07:19;94530.91;;;19.36;100.00
37716;BME280;23562;50.540;12.504;2022-08-01T01:09:56;94527.59;;;19.34;100.00
37716;BME280;23562;50.540;12.504;2022-08-01T01:12:43;94525.16;;;19.39;100.00
37716;BME280;23562;50.540;12.504;2022-08-01T01:18:03;94514.47;;;19.39;100.00
37716;BME280;23562;50.540;12.504;2022-08-01T01:20:35;94514.66;;;19.38;100.00
37716;BME280;23562;50.540;12.504;2022-08-01T01:23:12;94515.72;;;19.43;100.00
37716;BME280;23562;50.540;12.504;2022-08-01T01:25:50;94518.41;;;19.43;100.00
37716;BME280;23562;50.540;12.504;2022-08-01T01:28:27;94522.75;;;19.44;100.00
37716;BME280;23562;50.540;12.504;2022-08-01T01:30:56;94507.47;;;19.38;100.00
37716;BME280;23562;50.540;12.504;2022-08-01T01:33:24;94528.28;;;19.43;100.00
37716;BME280;23562;50.540;12.504;2022-08-01T01:35:52;94523.50;;;19.32;100.00
37716;BME280;23562;50.540;12.504;2022-08-01T01:38:26;94522.25;;;19.34;100.00
37716;BME280;23562;50.540;12.504;2022-08-01T01:40:53;94519.31;;;19.29;100.00
37716;BME280;23562;50.540;12.504;2022-08-01T01:43:21;94524.31;;;19.32;100.00
37716;BME280;23562;50.540;12.504;2022-08-01T01:45:48;94525.56;;;19.36;100.00
37716;BME280;23562;50.540;12.504;2022-08-01T01:48:17;94508.59;;;19.29;100.00
37716;BME280;23562;50.540;12.504;2022-08-01T01:50:45;94516.00;;;19.27;100.00
37716;BME280;23562;50.540;12.504;2022-08-01T01:53:13;94512.31;;;19.28;100.00
37716;BME280;23562;50.540;12.504;2022-08-01T01:55:41;94518.44;;;19.22;100.00
37716;BME280;23562;50.540;12.504;2022-08-01T01:58:09;94511.06;;;19.24;100.00
37716;BME280;23562;50.540;12.504;2022-08-01T02:00:37;94515.25;;;19.33;100.00
37716;BME280;23562;50.540;12.504;2022-08-01T02:03:04;94520.22;;;19.36;100.00
37716;BME280;23562;50.540;12.504;2022-08-01T02:05:30;94518.88;;;19.26;100.00
37716;BME280;23562;50.540;12.504;2022-08-01T02:07:59;94513.72;;;19.24;100.00
37716;BME280;23562;50.540;12.504;2022-08-01T02:10:26;94527.75;;;19.26;100.00
37716;BME280;23562;50.540;12.504;2022-08-01T02:12:52;94519.66;;;19.20;100.00
37716;BME280;23562;50.540;12.504;2022-08-01T02:15:19;94526.31;;;19.30;100.00
37716;BME280;23562;50.540;12.504;2022-08-01T02:17:47;94525.56;;;19.36;100.00
37716;BME280;23562;50.540;12.504;2022-08-01T02:20:14;94530.53;;;19.39;100.00
37716;BME280;23562;50.540;12.504;2022-08-01T02:22:44;94529.31;;;19.42;100.00
37716;BME280;23562;50.540;12.504;2022-08-01T02:25:22;94529.50;;;19.40;100.00
37716;BME280;23562;50.540;12.504;2022-08-01T02:27:56;94529.28;;;19.35;100.00
37716;BME280;23562;50.540;12.504;2022-08-01T02:30:25;94525.97;;;19.33;100.00
37716;BME280;23562;50.540;12.504;2022-08-01T02:32:58;94535.88;;;19.39;100.00
37716;BME280;23562;50.540;12.504;2022-08-01T02:35:28;94530.91;;;19.36;100.00
37716;BME280;23562;50.540;12.504;2022-08-01T02:37:57;94533.38;;;19.31;100.00
37716;BME280;23562;50.540;12.504;2022-08-01T02:40:24;94535.00;;;19.32;100.00
37716;BME280;23562;50.540;12.504;2022-08-01T02:42:52;94538.31;;;19.34;100.00
37716;BME280;23562;50.540;12.504;2022-08-01T02:45:18;94530.78;;;19.23;100.00
37716;BME280;23562;50.540;12.504;2022-08-01T02:47:46;94537.19;;;19.22;100.00
37716;BME280;23562;50.540;12.504;2022-08-01T02:50:14;94537.41;;;19.27;100.00
37716;BME280;23562;50.540;12.504;2022-08-01T02:52:40;94544.06;;;19.31;100.00
37716;BME280;23562;50.540;12.504;2022-08-01T02:55:08;94540.25;;;19.19;100.00
37716;BME280;23562;50.540;12.504;2022-08-01T02:57:34;94549.28;;;19.18;100.00
37716;BME280;23562;50.540;12.504;2022-08-01T03:00:02;94549.69;;;19.15;100.00
37716;BME280;23562;50.540;12.504;2022-08-01T03:02:30;94552.47;;;19.01;100.00
37716;BME280;23562;50.540;12.504;2022-08-01T03:04:56;94559.88;;;19.05;100.00
37716;BME280;23562;50.540;12.504;2022-08-01T03:07:22;94544.13;;;18.89;100.00
37716;BME280;23562;50.540;12.504;2022-08-01T03:09:49;94550.31;;;18.90;100.00
37716;BME280;23562;50.540;12.504;2022-08-01T03:12:17;94549.84;;;18.86;100.00
37716;BME280;23562;50.540;12.504;2022-08-01T03:14:45;94551.91;;;18.84;100.00
37716;BME280;23562;50.540;12.504;2022-08-01T03:17:12;94555.66;;;18.90;100.00
37716;BME280;23562;50.540;12.504;2022-08-01T03:19:38;94569.19;;;18.82;100.00
37716;BME280;23562;50.540;12.504;2022-08-01T03:22:08;94564.28;;;18.85;100.00
37716;BME280;23562;50.540;12.504;2022-08-01T03:24:34;94574.69;;;18.80;100.00
37716;BME280;23562;50.540;12.504;2022-08-01T03:27:00;94564.44;;;18.62;100.00
37716;BME280;23562;50.540;12.504;2022-08-01T03:29:27;94580.94;;;18.66;100.00
37716;BME280;23562;50.540;12.504;2022-08-01T03:31:55;94564.41;;;18.56;100.00
37716;BME280;23562;50.540;12.504;2022-08-01T03:34:21;94566.19;;;18.49;100.00
37716;BME280;23562;50.540;12.504;2022-08-01T03:36:56;94581.56;;;18.47;100.00
37716;BME280;23562;50.540;12.504;2022-08-01T03:39:29;94575.59;;;18.45;100.00
37716;BME280;23562;50.540;12.504;2022-08-01T03:42:01;94572.16;;;18.51;100.00
37716;BME280;23562;50.540;12.504;2022-08-01T03:44:31;94577.97;;;18.40;100.00
37716;BME280;23562;50.540;12.504;2022-08-01T03:47:01;94578.22;;;18.24;100.00
37716;BME280;23562;50.540;12.504;2022-08-01T03:49:32;94569.06;;;18.33;100.00
37716;BME280;23562;50.540;12.504;2022-08-01T03:52:01;94576.97;;;18.41;100.00
37716;BME280;23562;50.540;12.504;2022-08-01T03:54:30;94582.66;;;18.17;100.00
37716;BME280;23562;50.540;12.504;2022-08-01T03:56:59;94582.00;;;18.15;100.00
37716;BME280;23562;50.540;12.504;2022-08-01T03:59:26;94578.13;;;18.03;100.00
37716;BME280;23562;50.540;12.504;2022-08-01T04:01:52;94590.50;;;18.04;100.00
37716;BME280;23562;50.540;12.504;2022-08-01T04:04:18;94582.09;;;18.07;100.00
37716;BME280;23562;50.540;12.504;2022-08-01T04:06:43;94590.66;;;18.17;100.00
37716;BME280;23562;50.540;12.504;2022-08-01T04:09:10;94584.78;;;18.07;100.00
37716;BME280;23562;50.540;12.504;2022-08-01T04:11:36;94587.72;;;18.12;100.00
37716;BME280;23562;50.540;12.504;2022-08-01T04:14:01;94576.44;;;18.31;100.00
37716;BME280;23562;50.540;12.504;2022-08-01T04:16:27;94593.22;;;18.25;100.00
37716;BME280;23562;50.540;12.504;2022-08-01T04:18:52;94596.91;;;18.24;100.00
37716;BME280;23562;50.540;12.504;2022-08-01T04:21:21;94598.16;;;18.28;100.00
37716;BME280;23562;50.540;12.504;2022-08-01T04:23:49;94592.22;;;18.26;100.00
37716;BME280;23562;50.540;12.504;2022-08-01T04:26:17;94597.28;;;18.21;100.00
37716;BME280;23562;50.540;12.504;2022-08-01T04:28:44;94588.91;;;18.24;100.00
37716;BME280;23562;50.540;12.504;2022-08-01T04:31:10;94602.78;;;18.34;100.00
37716;BME280;23562;50.540;12.504;2022-08-01T04:33:39;94610.16;;;18.32;100.00
37716;BME280;23562;50.540;12.504;2022-08-01T04:36:06;94601.88;;;18.27;100.00
37716;BME280;23562;50.540;12.504;2022-08-01T04:38:34;94602.03;;;18.40;100.00
37716;BME280;23562;50.540;12.504;2022-08-01T04:41:02;94603.22;;;18.37;100.00
37716;BME280;23562;50.540;12.504;2022-08-01T04:43:27;94606.72;;;18.38;100.00
37716;BME280;23562;50.540;12.504;2022-08-01T04:45:54;94589.94;;;18.44;100.00
37716;BME280;23562;50.540;12.504;2022-08-01T04:48:21;94598.91;;;18.36;100.00
37716;BME280;23562;50.540;12.504;2022-08-01T04:50:47;94585.09;;;18.33;100.00
37716;BME280;23562;50.540;12.504;2022-08-01T04:53:19;94593.28;;;18.31;100.00
37716;BME280;23562;50.540;12.504;2022-08-01T04:55:46;94591.25;;;18.33;100.00
37716;BME280;23562;50.540;12.504;2022-08-01T04:58:12;94611.06;;;18.39;100.00
37716;BME280;23562;50.540;12.504;2022-08-01T05:00:38;94607.94;;;18.35;100.00
37716;BME280;23562;50.540;12.504;2022-08-01T05:03:03;94612.38;;;18.43;100.00
37716;BME280;23562;50.540;12.504;2022-08-01T05:05:28;94596.31;;;18.43;100.00
37716;BME280;23562;50.540;12.504;2022-08-01T05:07:55;94599.84;;;18.29;100.00
37716;BME280;23562;50.540;12.504;2022-08-01T05:10:20;94612.53;;;18.56;100.00
37716;BME280;23562;50.540;12.504;2022-08-01T05:12:46;94606.63;;;18.46;100.00
37716;BME280;23562;50.540;12.504;2022-08-01T05:15:11;94615.75;;;18.51;100.00
37716;BME280;23562;50.540;12.504;2022-08-01T05:17:36;94616.97;;;18.49;100.00
37716;BME280;23562;50.540;12.504;2022-08-01T05:20:02;94619.94;;;18.25;100.00
37716;BME280;23562;50.540;12.504;2022-08-01T05:22:27;94619.41;;;18.15;100.00
37716;BME280;23562;50.540;12.504;2022-08-01T05:24:53;94609.47;;;18.09;100.00
37716;BME280;23562;50.540;12.504;2022-08-01T05:27:18;94617.66;;;18.07;100.00
37716;BME280;23562;50.540;12.504;2022-08-01T05:29:44;94607.81;;;18.08;100.00
37716;BME280;23562;50.540;12.504;2022-08-01T05:32:09;94608.81;;;17.92;100.00
37716;BME280;23562;50.540;12.504;2022-08-01T05:34:34;94621.78;;;18.10;100.00
37716;BME280;23562;50.540;12.504;2022-08-01T05:37:00;94619.25;;;18.02;100.00
37716;BME280;23562;50.540;12.504;2022-08-01T05:39:25;94616.94;;;17.99;100.00
37716;BME280;23562;50.540;12.504;2022-08-01T05:41:50;94627.91;;;18.04;100.00
37716;BME280;23562;50.540;12.504;2022-08-01T05:44:16;94626.59;;;18.00;100.00
37716;BME280;23562;50.540;12.504;2022-08-01T05:46:41;94619.31;;;17.94;100.00
37716;BME280;23562;50.540;12.504;2022-08-01T05:49:07;94596.22;;;18.01;100.00
37716;BME280;23562;50.540;12.504;2022-08-01T05:51:32;94619.75;;;18.12;100.00
37716;BME280;23562;50.540;12.504;2022-08-01T05:53:58;94620.66;;;18.19;100.00
37716;BME280;23562;50.540;12.504;2022-08-01T05:56:24;94626.47;;;18.22;100.00
37716;BME280;23562;50.540;12.504;2022-08-01T05:58:50;94620.06;;;18.17;100.00
37716;BME280;23562;50.540;12.504;2022-08-01T06:01:16;94627.69;;;18.20;100.00
37716;BME280;23562;50.540;12.504;2022-08-01T06:03:41;94613.69;;;18.18;100.00
37716;BME280;23562;50.540;12.504;2022-08-01T06:06:06;94621.31;;;18.21;100.00
37716;BME280;23562;50.540;12.504;2022-08-01T06:08:32;94618.28;;;18.24;100.00
37716;BME280;23562;50.540;12.504;2022-08-01T06:10:57;94627.31;;;18.23;100.00
37716;BME280;23562;50.540;12.504;2022-08-01T06:13:23;94629.34;;;18.21;100.00
37716;BME280;23562;50.540;12.504;2022-08-01T06:15:48;94625.66;;;18.22;100.00
37716;BME280;23562;50.540;12.504;2022-08-01T06:18:14;94625.81;;;18.35;100.00
37716;BME280;23562;50.540;12.504;2022-08-01T06:20:39;94631.19;;;18.35;100.00
37716;BME280;23562;50.540;12.504;2022-08-01T06:23:05;94611.19;;;18.31;100.00
37716;BME280;23562;50.540;12.504;2022-08-01T06:25:30;94637.31;;;18.50;100.00
37716;BME280;23562;50.540;12.504;2022-08-01T06:27:56;94640.44;;;18.53;100.00
37716;BME280;23562;50.540;12.504;2022-08-01T06:30:21;94638.72;;;18.46;100.00
37716;BME280;23562;50.540;12.504;2022-08-01T06:32:46;94622.38;;;18.55;100.00
37716;BME280;23562;50.540;12.504;2022-08-01T06:35:12;94645.13;;;18.66;100.00
37716;BME280;23562;50.540;12.504;2022-08-01T06:37:38;94637.59;;;18.55;100.00
37716;BME280;23562;50.540;12.504;2022-08-01T06:40:05;94643.91;;;18.68;100.00
37716;BME280;23562;50.540;12.504;2022-08-01T06:42:31;94633.53;;;18.59;100.00
37716;BME280;23562;50.540;12.504;2022-08-01T06:45:07;94637.34;;;18.71;100.00
37716;BME280;23562;50.540;12.504;2022-08-01T06:47:33;94636.97;;;18.74;100.00
37716;BME280;23562;50.540;12.504;2022-08-01T06:49:58;94646.91;;;18.80;100.00
37716;BME280;23562;50.540;12.504;2022-08-01T06:52:24;94642.97;;;18.97;100.00
37716;BME280;23562;50.540;12.504;2022-08-01T06:54:49;94641.81;;;19.06;100.00
37716;BME280;23562;50.540;12.504;2022-08-01T06:57:14;94645.59;;;19.12;100.00
37716;BME280;23562;50.540;12.504;2022-08-01T06:59:39;94657.63;;;19.22;100.00
37716;BME280;23562;50.540;12.504;2022-08-01T07:02:05;94655.44;;;19.11;100.00
37716;BME280;23562;50.540;12.504;2022-08-01T07:04:31;94652.53;;;19.06;100.00
37716;BME280;23562;50.540;12.504;2022-08-01T07:06:57;94657.09;;;19.12;100.00
37716;BME280;23562;50.540;12.504;2022-08-01T07:09:22;94655.56;;;19.24;100.00
37716;BME280;23562;50.540;12.504;2022-08-01T07:11:47;94639.13;;;19.27;100.00
37716;BME280;23562;50.540;12.504;2022-08-01T07:14:13;94643.56;;;19.35;100.00
37716;BME280;23562;50.540;12.504;2022-08-01T07:16:38;94652.25;;;19.22;100.00
37716;BME280;23562;50.540;12.504;2022-08-01T07:19:03;94659.47;;;19.22;100.00
37716;BME280;23562;50.540;12.504;2022-08-01T07:21:29;94658.00;;;19.19;100.00
37716;BME280;23562;50.540;12.504;2022-08-01T07:23:54;94661.00;;;19.31;100.00
37716;BME280;23562;50.540;12.504;2022-08-01T07:26:19;94654.31;;;19.20;100.00
37716;BME280;23562;50.540;12.504;2022-08-01T07:28:44;94653.03;;;19.16;100.00
37716;BME280;23562;50.540;12.504;2022-08-01T07:31:10;94657.03;;;19.06;100.00
37716;BME280;23562;50.540;12.504;2022-08-01T07:33:35;94660.06;;;19.17;100.00
37716;BME280;23562;50.540;12.504;2022-08-01T07:36:00;94660.06;;;19.17;100.00
37716;BME280;23562;50.540;12.504;2022-08-01T07:38:25;94656.59;;;19.02;100.00
37716;BME280;23562;50.540;12.504;2022-08-01T07:40:51;94660.34;;;19.08;100.00
37716;BME280;23562;50.540;12.504;2022-08-01T07:43:16;94656.34;;;19.18;100.00
37716;BME280;23562;50.540;12.504;2022-08-01T07:45:41;94667.28;;;19.23;100.00
37716;BME280;23562;50.540;12.504;2022-08-01T07:48:07;94663.72;;;19.16;100.00
37716;BME280;23562;50.540;12.504;2022-08-01T07:50:33;94668.38;;;19.08;100.00
37716;BME280;23562;50.540;12.504;2022-08-01T07:52:59;94664.81;;;19.01;100.00
37716;BME280;23562;50.540;12.504;2022-08-01T07:55:24;94666.16;;;19.11;100.00
37716;BME280;23562;50.540;12.504;2022-08-01T07:57:49;94675.06;;;19.18;100.00
37716;BME280;23562;50.540;12.504;2022-08-01T08:00:15;94659.03;;;19.39;100.00
37716;BME280;23562;50.540;12.504;2022-08-01T08:02:40;94663.50;;;19.32;100.00
37716;BME280;23562;50.540;12.504;2022-08-01T08:05:06;94659.94;;;19.46;100.00
37716;BME280;23562;50.540;12.504;2022-08-01T08:07:32;94660.25;;;19.37;100.00
37716;BME280;23562;50.540;12.504;2022-08-01T08:09:57;94673.75;;;19.50;100.00
37716;BME280;23562;50.540;12.504;2022-08-01T08:12:22;94663.13;;;19.35;100.00
37716;BME280;23562;50.540;12.504;2022-08-01T08:14:48;94684.91;;;19.32;100.00
37716;BME280;23562;50.540;12.504;2022-08-01T08:17:13;94676.34;;;19.43;100.00
37716;BME280;23562;50.540;12.504;2022-08-01T08:19:38;94692.41;;;19.43;100.00
37716;BME280;23562;50.540;12.504;2022-08-01T08:22:06;94684.03;;;19.46;100.00
37716;BME280;23562;50.540;12.504;2022-08-01T08:24:31;94678.41;;;19.41;100.00
37716;BME280;23562;50.540;12.504;2022-08-01T08:26:58;94691.66;;;19.49;100.00
37716;BME280;23562;50.540;12.504;2022-08-01T08:29:24;94686.03;;;19.65;100.00
37716;BME280;23562;50.540;12.504;2022-08-01T08:31:52;94685.50;;;19.55;100.00
37716;BME280;23562;50.540;12.504;2022-08-01T08:34:17;94682.47;;;19.58;100.00
37716;BME280;23562;50.540;12.504;2022-08-01T08:36:42;94688.47;;;19.60;100.00
37716;BME280;23562;50.540;12.504;2022-08-01T08:39:08;94671.50;;;19.53;100.00
37716;BME280;23562;50.540;12.504;2022-08-01T08:41:34;94682.41;;;19.79;100.00
37716;BME280;23562;50.540;12.504;2022-08-01T08:44:03;94689.06;;;19.90;100.00
37716;BME280;23562;50.540;12.504;2022-08-01T08:46:30;94669.75;;;19.95;100.00
37716;BME280;23562;50.540;12.504;2022-08-01T08:48:58;94684.88;;;20.09;100.00
37716;BME280;23562;50.540;12.504;2022-08-01T08:51:26;94674.28;;;20.01;100.00
37716;BME280;23562;50.540;12.504;2022-08-01T08:53:54;94670.00;;;20.06;100.00
37716;BME280;23562;50.540;12.504;2022-08-01T08:56:21;94674.38;;;20.14;100.00
37716;BME280;23562;50.540;12.504;2022-08-01T08:58:48;94674.50;;;20.27;100.00
37716;BME280;23562;50.540;12.504;2022-08-01T09:01:13;94674.38;;;20.14;100.00
37716;BME280;23562;50.540;12.504;2022-08-01T09:03:39;94686.41;;;20.18;100.00
37716;BME280;23562;50.540;12.504;2022-08-01T09:06:05;94679.00;;;20.20;100.00
37716;BME280;23562;50.540;12.504;2022-08-01T09:08:30;94676.13;;;20.28;100.00
37716;BME280;23562;50.540;12.504;2022-08-01T09:10:55;94679.94;;;20.46;100.00
37716;BME280;23562;50.540;12.504;2022-08-01T09:13:21;94683.31;;;20.61;100.00
37716;BME280;23562;50.540;12.504;2022-08-01T09:15:49;94685.34;;;20.53;100.00
37716;BME280;23562;50.540;12.504;2022-08-01T09:18:26;94694.94;;;20.81;100.00
37716;BME280;23562;50.540;12.504;2022-08-01T09:21:11;94685.88;;;20.89;100.00
37716;BME280;23562;50.540;12.504;2022-08-01T09:23:39;94688.34;;;20.84;100.00
37716;BME280;23562;50.540;12.504;2022-08-01T09:26:07;94686.19;;;20.60;100.00
37716;BME280;23562;50.540;12.504;2022-08-01T09:28:33;94696.06;;;20.53;100.00
37716;BME280;23562;50.540;12.504;2022-08-01T09:31:05;94702.16;;;20.34;100.00
37716;BME280;23562;50.540;12.504;2022-08-01T09:33:58;94708.41;;;20.47;100.00
37716;BME280;23562;50.540;12.504;2022-08-01T09:36:26;94712.09;;;20.40;100.00
37716;BME280;23562;50.540;12.504;2022-08-01T09:38:53;94712.09;;;20.40;100.00
37716;BME280;23562;50.540;12.504;2022-08-01T09:41:31;94715.69;;;20.19;100.00
37716;BME280;23562;50.540;12.504;2022-08-01T09:43:57;94719.94;;;20.41;100.00
37716;BME280;23562;50.540;12.504;2022-08-01T09:46:23;94718.16;;;20.55;100.00
37716;BME280;23562;50.540;12.504;2022-08-01T09:49:03;94721.53;;;20.70;100.00
37716;BME280;23562;50.540;12.504;2022-08-01T09:51:36;94734.38;;;20.88;100.00
37716;BME280;23562;50.540;12.504;2022-08-01T09:54:04;94733.81;;;20.92;100.00
37716;BME280;23562;50.540;12.504;2022-08-01T09:56:37;94736.50;;;20.92;100.00
37716;BME280;23562;50.540;12.504;2022-08-01T09:59:02;94733.34;;;20.89;100.00
37716;BME280;23562;50.540;12.504;2022-08-01T10:01:48;94728.19;;;20.87;100.00
37716;BME280;23562;50.540;12.504;2022-08-01T10:04:19;94726.19;;;20.55;100.00
37716;BME280;23562;50.540;12.504;2022-08-01T10:06:47;94728.75;;;20.29;100.00
37716;BME280;23562;50.540;12.504;2022-08-01T10:09:32;94734.75;;;20.31;100.00
37716;BME280;23562;50.540;12.504;2022-08-01T10:11:59;94738.53;;;20.43;100.00
37716;BME280;23562;50.540;12.504;2022-08-01T10:14:26;94737.22;;;20.32;100.00
37716;BME280;23562;50.540;12.504;2022-08-01T10:16:53;94740.03;;;20.24;100.00
37716;BME280;23562;50.540;12.504;2022-08-01T10:19:22;94751.84;;;20.30;100.00
37716;BME280;23562;50.540;12.504;2022-08-01T10:21:48;94751.44;;;20.33;100.00
37716;BME280;23562;50.540;12.504;2022-08-01T10:24:17;94749.69;;;20.53;100.00
37716;BME280;23562;50.540;12.504;2022-08-01T10:26:43;94751.09;;;20.83;100.00
37716;BME280;23562;50.540;12.504;2022-08-01T10:29:09;94746.50;;;20.70;100.00
37716;BME280;23562;50.540;12.504;2022-08-01T10:31:36;94743.63;;;20.78;100.00
37716;BME280;23562;50.540;12.504;2022-08-01T10:34:03;94725.91;;;20.84;100.00
37716;BME280;23562;50.540;12.504;2022-08-01T10:36:29;94746.97;;;20.80;100.00
37716;BME280;23562;50.540;12.504;2022-08-01T10:38:56;94731.72;;;20.94;100.00
37716;BME280;23562;50.540;12.504;2022-08-01T10:41:23;94741.69;;;21.00;100.00
37716;BME280;23562;50.540;12.504;2022-08-01T10:43:49;94744.22;;;21.21;100.00
37716;BME280;23562;50.540;12.504;2022-08-01T10:46:14;94755.44;;;21.31;100.00
37716;BME280;23562;50.540;12.504;2022-08-01T10:49:01;94748.38;;;21.24;100.00
37716;BME280;23562;50.540;12.504;2022-08-01T10:51:27;94747.06;;;21.00;100.00
37716;BME280;23562;50.540;12.504;2022-08-01T10:53:54;94742.16;;;21.23;100.00
37716;BME280;23562;50.540;12.504;2022-08-01T10:56:23;94736.34;;;21.07;100.00
37716;BME280;23562;50.540;12.504;2022-08-01T10:58:49;94743.00;;;21.30;100.00
37716;BME280;23562;50.540;12.504;2022-08-01T11:03:40;94733.13;;;21.50;100.00
37716;BME280;23562;50.540;12.504;2022-08-01T11:06:05;94736.78;;;21.17;100.00
37716;BME280;23562;50.540;12.504;2022-08-01T11:08:34;94743.03;;;21.43;100.00
37716;BME280;23562;50.540;12.504;2022-08-01T11:11:02;94730.91;;;21.60;100.00
37716;BME280;23562;50.540;12.504;2022-08-01T11:16:34;94731.91;;;22.18;100.00
37716;BME280;23562;50.540;12.504;2022-08-01T11:19:00;94743.09;;;22.41;100.00
37716;BME280;23562;50.540;12.504;2022-08-01T11:24:55;94741.81;;;22.44;100.00
37716;BME280;23562;50.540;12.504;2022-08-01T11:27:27;94723.19;;;22.42;100.00
37716;BME280;23562;50.540;12.504;2022-08-01T11:30:21;94733.94;;;22.62;100.00
37716;BME280;23562;50.540;12.504;2022-08-01T11:32:54;94725.22;;;22.73;100.00
37716;BME280;23562;50.540;12.504;2022-08-01T11:35:24;94723.50;;;22.85;100.00
37716;BME280;23562;50.540;12.504;2022-08-01T11:37:52;94725.97;;;22.93;100.00
37716;BME280;23562;50.540;12.504;2022-08-01T11:40:28;94735.50;;;22.89;100.00
37716;BME280;23562;50.540;12.504;2022-08-01T11:48:25;94733.66;;;23.34;100.00
37716;BME280;23562;50.540;12.504;2022-08-01T11:50:55;94740.31;;;23.31;95.55
37716;BME280;23562;50.540;12.504;2022-08-01T11:53:21;94715.59;;;22.90;100.00
37716;BME280;23562;50.540;12.504;2022-08-01T11:55:50;94729.19;;;23.15;100.00
37716;BME280;23562;50.540;12.504;2022-08-01T11:58:20;94722.75;;;23.16;100.00
37716;BME280;23562;50.540;12.504;2022-08-01T12:00:53;94738.09;;;23.15;100.00
37716;BME280;23562;50.540;12.504;2022-08-01T12:03:30;94713.16;;;22.82;100.00
37716;BME280;23562;50.540;12.504;2022-08-01T12:05:57;94720.16;;;22.96;100.00
37716;BME280;23562;50.540;12.504;2022-08-01T12:08:27;94733.38;;;22.98;100.00
37716;BME280;23562;50.540;12.504;2022-08-01T12:10:52;94727.59;;;22.94;100.00
37716;BME280;23562;50.540;12.504;2022-08-01T12:13:18;94726.38;;;22.97;100.00
37716;BME280;23562;50.540;12.504;2022-08-01T12:15:44;94728.19;;;23.03;100.00
37716;BME280;23562;50.540;12.504;2022-08-01T12:18:10;94734.94;;;22.74;100.00
37716;BME280;23562;50.540;12.504;2022-08-01T12:20:40;94734.66;;;22.95;100.00
37716;BME280;23562;50.540;12.504;2022-08-01T12:23:09;94739.47;;;22.80;100.00
37716;BME280;23562;50.540;12.504;2022-08-01T12:25:35;94744.16;;;23.04;100.00
37716;BME280;23562;50.540;12.504;2022-08-01T12:28:03;94735.94;;;22.79;100.00
37716;BME280;23562;50.540;12.504;2022-08-01T12:30:29;94731.44;;;22.73;100.00
37716;BME280;23562;50.540;12.504;2022-08-01T12:32:56;94746.78;;;22.60;100.00
37716;BME280;23562;50.540;12.504;2022-08-01T12:35:24;94741.59;;;22.52;100.00
37716;BME280;23562;50.540;12.504;2022-08-01T12:37:52;94741.81;;;22.57;100.00
37716;BME280;23562;50.540;12.504;2022-08-01T12:40:21;94739.53;;;22.54;100.00
37716;BME280;23562;50.540;12.504;2022-08-01T12:42:49;94741.56;;;22.65;100.00
37716;BME280;23562;50.540;12.504;2022-08-01T12:45:18;94743.88;;;22.68;100.00
37716;BME280;23562;50.540;12.504;2022-08-01T12:47:44;94741.00;;;22.56;100.00
37716;BME280;23562;50.540;12.504;2022-08-01T12:50:13;94743.06;;;22.48;100.00
37716;BME280;23562;50.540;12.504;2022-08-01T12:52:39;94750.94;;;22.36;100.00
37716;BME280;23562;50.540;12.504;2022-08-01T12:55:16;94744.94;;;22.41;100.00
37716;BME280;23562;50.540;12.504;2022-08-01T12:57:44;94746.81;;;22.34;100.00
37716;BME280;23562;50.540;12.504;2022-08-01T13:02:36;94752.63;;;22.24;100.00